Time;durP1;ratioP1;P1;durP2;ratioP2;P2;SDS_P1;SDS_P2;PMS_P1;PMS_P2;Temp;Humidity;BMP_temperature;BMP_pressure;BME280_temperature;BME280_humidity;BME280_pressure;Samples;Min_cycle;Max_cycle;Signal;HPM_P1;HPM_P2
2023/06/30 00:01:01;;;;;;;3.63;2.50;;;;;;;;;;10351919;28;20493;-78
2023/06/30 00:06:24;;;;;;;4.18;2.58;;;;;;;;;;10361836;28;20248;-78
2023/06/30 00:11:45;;;;;;;3.40;2.60;;;;;;;;;;10356927;28;20205;-78
2023/06/30 00:17:07;;;;;;;3.95;2.45;;;;;;;;;;10346688;28;20205;-78
2023/06/30 00:22:28;;;;;;;3.33;2.53;;;;;;;;;;10357323;28;20263;-78
2023/06/30 00:27:50;;;;;;;3.75;3.08;;;;;;;;;;10329646;28;20225;-78
2023/06/30 00:33:12;;;;;;;6.30;3.33;;;;;;;;;;10345545;28;20500;-78
2023/06/30 00:38:35;;;;;;;3.53;2.80;;;;;;;;;;10355864;28;20202;-78
2023/06/30 00:43:58;;;;;;;5.55;3.00;;;;;;;;;;10360640;28;20190;-78
2023/06/30 00:49:20;;;;;;;3.53;2.55;;;;;;;;;;10345405;28;20233;-78
2023/06/30 00:54:41;;;;;;;4.45;3.00;;;;;;;;;;10338785;28;20235;-78
2023/06/30 01:00:07;;;;;;;3.90;2.63;;;;;;;;;;10341833;28;20485;-78
2023/06/30 01:05:35;;;;;;;5.03;3.47;;;;;;;;;;10358537;28;20429;-78
2023/06/30 01:10:57;;;;;;;5.82;3.50;;;;;;;;;;10309306;28;20213;-78
2023/06/30 01:16:19;;;;;;;4.78;3.10;;;;;;;;;;10317760;28;20392;-78
2023/06/30 01:21:42;;;;;;;4.18;3.22;;;;;;;;;;10317424;28;20202;-77
2023/06/30 01:27:04;;;;;;;4.90;3.45;;;;;;;;;;10337280;28;20255;-78
2023/06/30 01:32:25;;;;;;;5.90;3.38;;;;;;;;;;10343474;28;20229;-78
2023/06/30 01:37:47;;;;;;;6.55;3.13;;;;;;;;;;10352447;28;20559;-77
2023/06/30 01:43:09;;;;;;;4.93;3.08;;;;;;;;;;10358347;28;20221;-77
2023/06/30 01:48:30;;;;;;;3.63;2.90;;;;;;;;;;10343079;28;20279;-78
2023/06/30 01:53:52;;;;;;;5.38;3.20;;;;;;;;;;10353153;28;20202;-78
2023/06/30 01:59:13;;;;;;;3.97;3.00;;;;;;;;;;10356950;28;20448;-78
2023/06/30 02:04:35;;;;;;;3.22;2.88;;;;;;;;;;10355961;28;20221;-78
2023/06/30 02:09:57;;;;;;;3.97;3.17;;;;;;;;;;10306897;28;20211;-78
2023/06/30 02:15:18;;;;;;;4.53;3.17;;;;;;;;;;10315847;28;20199;-78
2023/06/30 02:20:41;;;;;;;6.07;3.72;;;;;;;;;;10315271;28;20209;-78
2023/06/30 02:26:02;;;;;;;4.10;3.53;;;;;;;;;;10315345;28;20253;-78
2023/06/30 02:31:25;;;;;;;6.65;4.03;;;;;;;;;;10353474;28;20496;-77
2023/06/30 02:36:48;;;;;;;5.07;3.80;;;;;;;;;;10350403;28;20316;-78
2023/06/30 02:42:10;;;;;;;4.35;3.58;;;;;;;;;;10356155;28;20190;-78
2023/06/30 02:47:31;;;;;;;7.50;4.28;;;;;;;;;;10341354;28;20227;-78
2023/06/30 02:52:59;;;;;;;5.18;4.10;;;;;;;;;;10318939;28;20241;-77
2023/06/30 02:58:22;;;;;;;5.90;4.38;;;;;;;;;;10322931;28;20281;-77
2023/06/30 03:03:44;;;;;;;4.18;3.55;;;;;;;;;;10340042;28;20292;-77
2023/06/30 03:09:07;;;;;;;4.78;3.75;;;;;;;;;;10363677;28;20400;-78
2023/06/30 03:14:30;;;;;;;4.03;3.25;;;;;;;;;;10338805;28;20189;-78
2023/06/30 03:19:52;;;;;;;4.75;3.45;;;;;;;;;;10313785;28;20266;-78
2023/06/30 03:25:14;;;;;;;3.97;3.58;;;;;;;;;;10303492;28;20220;-78
2023/06/30 03:30:36;;;;;;;6.88;3.53;;;;;;;;;;10324194;28;20201;-78
2023/06/30 03:35:58;;;;;;;4.15;3.42;;;;;;;;;;10315650;28;20237;-78
2023/06/30 03:41:21;;;;;;;5.25;3.97;;;;;;;;;;10325010;28;20229;-78
2023/06/30 03:46:43;;;;;;;6.55;4.40;;;;;;;;;;10353518;28;20237;-78
2023/06/30 03:52:04;;;;;;;5.18;4.20;;;;;;;;;;10353460;28;20197;-78
2023/06/30 03:57:26;;;;;;;4.88;3.63;;;19.10;99.90;;;;;;10335296;28;20206;-77
2023/06/30 04:02:48;;;;;;;5.47;3.92;;;19.10;99.90;;;;;;10366800;28;20249;-77
2023/06/30 04:08:09;;;;;;;3.85;3.45;;;19.10;1.00;;;;;;10353725;28;20217;-78
2023/06/30 04:13:30;;;;;;;3.85;3.13;;;19.20;1.00;;;;;;10350191;28;20198;-78
2023/06/30 04:18:53;;;;;;;5.55;3.60;;;19.20;1.00;;;;;;10374007;28;20194;-78
2023/06/30 04:24:14;;;;;;;4.00;3.10;;;19.20;1.00;;;;;;10355201;28;20287;-78
2023/06/30 04:29:35;;;;;;;7.55;4.32;;;19.30;1.00;;;;;;10360726;28;20217;-77
2023/06/30 04:34:58;;;;;;;4.05;3.38;;;19.20;1.00;;;;;;10359567;28;20202;-78
2023/06/30 04:40:19;;;;;;;4.45;3.65;;;19.20;1.00;;;;;;10347845;28;20203;-78
2023/06/30 04:45:42;;;;;;;8.48;4.35;;;19.30;1.00;;;;;;10318950;28;20237;-78
2023/06/30 04:51:03;;;;;;;8.20;3.88;;;19.40;1.00;;;;;;10335193;28;20210;-78
2023/06/30 04:56:25;;;;;;;18.27;8.60;;;19.50;1.00;;;;;;10352162;28;20272;-79
2023/06/30 05:01:47;;;;;;;18.30;8.77;;;19.60;1.00;;;;;;10359645;28;20197;-79
2023/06/30 05:07:09;;;;;;;10.57;6.53;;;19.60;1.00;;;;;;10350246;28;20466;-78
2023/06/30 05:12:31;;;;;;;9.70;4.68;;;19.70;1.00;;;;;;10331877;28;20210;-79
2023/06/30 05:17:52;;;;;;;5.78;3.22;;;19.80;1.00;;;;;;10317446;28;20203;-79
2023/06/30 05:23:13;;;;;;;4.13;2.83;;;19.80;1.00;;;;;;10321190;28;20202;-79
2023/06/30 05:28:35;;;;;;;6.18;3.40;;;19.90;1.00;;;;;;10332624;28;20414;-80
2023/06/30 05:33:56;;;;;;;3.40;2.75;;;19.90;1.00;;;;;;10356784;28;20237;-79
2023/06/30 05:39:18;;;;;;;5.07;3.40;;;19.90;1.00;;;;;;10303225;28;20233;-79
2023/06/30 05:44:39;;;;;;;6.07;3.58;;;20.00;1.00;;;;;;10303194;28;20190;-78
2023/06/30 05:50:00;;;;;;;6.53;3.22;;;20.10;99.90;;;;;;10320146;28;20213;-79
2023/06/30 05:55:21;;;;;;;5.78;3.45;;;20.10;99.90;;;;;;10330088;28;20195;-79
2023/06/30 06:00:43;;;;;;;5.93;3.67;;;20.20;99.90;;;;;;10303215;28;20202;-79
2023/06/30 06:06:04;;;;;;;8.02;3.63;;;20.20;99.90;;;;;;10329077;28;20238;-78
2023/06/30 06:11:26;;;;;;;4.72;3.33;;;20.40;99.90;;;;;;10316795;28;20274;-79
2023/06/30 06:16:47;;;;;;;7.70;4.28;;;20.60;99.90;;;;;;10322153;28;20229;-79
2023/06/30 06:22:09;;;;;;;5.50;3.45;;;20.70;99.90;;;;;;10355595;28;20273;-77
2023/06/30 06:27:34;;;;;;;5.55;3.63;;;20.80;99.90;;;;;;10356577;28;20442;-79
2023/06/30 06:32:55;;;;;;;9.35;3.17;;;21.00;99.90;;;;;;10361972;28;20216;-79
2023/06/30 06:38:18;;;;;;;4.50;3.33;;;21.00;99.90;;;;;;10353543;28;20194;-78
2023/06/30 06:43:40;;;;;;;6.45;3.30;;;;;;;;;;10305632;28;20386;-77
2023/06/30 06:49:01;;;;;;;9.82;3.33;;;;;;;;;;10341542;28;20227;-78
2023/06/30 06:54:23;;;;;;;7.00;3.30;;;;;;;;;;10354350;28;20251;-78
2023/06/30 06:59:44;;;;;;;5.60;3.47;;;;;;;;;;10355150;28;20517;-79
2023/06/30 07:05:06;;;;;;;7.85;3.90;;;;;;;;;;10317212;28;20234;-78
2023/06/30 07:10:29;;;;;;;4.50;3.17;;;;;;;;;;10339927;28;20208;-78
2023/06/30 07:15:50;;;;;;;7.93;3.30;;;21.80;99.90;;;;;;10347397;28;20407;-79
2023/06/30 07:21:12;;;;;;;9.52;3.22;;;22.00;1.00;;;;;;10314729;28;20190;-84
2023/06/30 07:26:34;;;;;;;4.85;3.08;;;;;;;;;;10326834;28;20276;-80
2023/06/30 07:31:55;;;;;;;5.50;2.80;;;;;;;;;;10327058;28;20190;-80
2023/06/30 07:37:17;;;;;;;6.60;3.03;;;22.20;1.00;;;;;;10348607;28;20210;-78
2023/06/30 07:42:39;;;;;;;5.88;2.50;;;22.20;1.00;;;;;;10344092;28;20197;-78
2023/06/30 07:48:00;;;;;;;4.68;2.78;;;22.40;99.90;;;;;;10328656;28;20226;-78
2023/06/30 07:53:21;;;;;;;3.60;2.30;;;22.60;99.90;;;;;;10357470;28;20193;-80
2023/06/30 07:58:43;;;;;;;4.07;2.20;;;22.70;1.00;;;;;;10336785;28;20496;-80
2023/06/30 08:04:05;;;;;;;5.32;2.95;;;;;;;;;;10340125;28;20431;-78
2023/06/30 08:09:26;;;;;;;5.13;2.85;;;22.40;1.00;;;;;;10350018;28;20444;-77
2023/06/30 08:14:48;;;;;;;5.80;3.10;;;22.80;1.00;;;;;;10356859;28;20186;-79
2023/06/30 08:20:09;;;;;;;4.25;2.92;;;23.10;99.90;;;;;;10368460;28;20484;-77
2023/06/30 08:25:31;;;;;;;4.18;2.67;;;23.10;99.90;;;;;;10348249;28;20213;-77
2023/06/30 08:30:53;;;;;;;3.47;2.78;;;23.20;99.90;;;;;;10349297;28;20201;-77
2023/06/30 08:36:14;;;;;;;8.63;3.10;;;23.20;99.90;;;;;;10334812;28;20455;-77
2023/06/30 08:41:37;;;;;;;6.03;2.70;;;23.20;99.90;;;;;;10342641;28;20277;-77
2023/06/30 08:47:00;;;;;;;4.35;2.80;;;23.20;1.00;;;;;;10313036;28;20305;-77
2023/06/30 08:52:22;;;;;;;5.50;3.33;;;23.20;1.00;;;;;;10313833;28;20198;-76
2023/06/30 08:57:44;;;;;;;7.85;3.85;;;23.20;1.00;;;;;;10331176;28;20206;-80
2023/06/30 09:03:06;;;;;;;3.92;2.60;;;23.20;1.00;;;;;;10317861;28;20256;-77
2023/06/30 09:08:53;;;;;;;5.70;3.40;;;23.20;1.00;;;;;;10333888;28;20309;-78
2023/06/30 09:14:15;;;;;;;5.18;2.83;;;23.20;1.00;;;;;;10327987;28;20240;-77
2023/06/30 09:19:37;;;;;;;4.95;3.05;;;23.20;1.00;;;;;;10332073;28;20205;-80
2023/06/30 09:24:59;;;;;;;3.55;3.20;;;23.20;1.00;;;;;;10335570;28;20238;-79
2023/06/30 09:30:34;;;;;;;6.55;2.55;;;23.30;1.00;;;;;;10341320;28;20583;-77
2023/06/30 09:35:58;;;;;;;3.75;2.70;;;23.30;1.00;;;;;;10349174;28;20198;-77
2023/06/30 09:41:20;;;;;;;7.90;3.35;;;23.30;1.00;;;;;;10348565;28;20190;-82
2023/06/30 09:46:49;;;;;;;7.78;3.22;;;23.40;1.00;;;;;;10311322;28;20230;-84
2023/06/30 09:52:24;;;;;;;5.07;2.72;;;23.50;1.00;;;;;;10310422;28;20918;-77
2023/06/30 09:57:46;;;;;;;3.33;2.55;;;23.40;1.00;;;;;;10320252;28;20210;-77
2023/06/30 10:03:10;;;;;;;9.65;6.18;;;23.30;1.00;;;;;;10336428;28;20238;-79
2023/06/30 10:08:31;;;;;;;4.03;2.83;;;23.10;1.00;;;;;;10321064;28;20230;-79
2023/06/30 10:13:57;;;;;;;3.80;2.35;;;23.00;1.00;;;;;;10310918;28;20213;-79
2023/06/30 10:19:19;;;;;;;6.05;2.95;;;22.80;1.00;;;;;;10326593;28;20260;-78
2023/06/30 10:24:43;;;;;;;3.95;2.80;;;22.70;1.00;;;;;;10354543;28;20245;-79
2023/06/30 10:30:05;;;;;;;7.45;3.35;;;22.60;1.00;;;;;;10350610;28;20256;-79
2023/06/30 10:35:27;;;;;;;6.03;3.40;;;22.60;99.90;;;;;;10350373;28;20206;-80
2023/06/30 10:40:48;;;;;;;8.65;5.60;;;22.30;12.30;;;;;;10350962;28;20216;-78
2023/06/30 10:46:09;;;;;;;19.85;5.68;;;22.20;1.00;;;;;;10333741;28;20244;-78
2023/06/30 10:51:36;;;;;;;5.95;3.60;;;22.20;99.90;;;;;;10348205;28;20210;-79
2023/06/30 10:57:22;;;;;;;12.20;7.57;;;22.20;99.90;;;;;;10349864;28;20217;-79
2023/06/30 11:02:56;;;;;;;17.15;7.28;;;22.30;99.90;;;;;;10348339;28;20197;-84
2023/06/30 11:08:24;;;;;;;13.75;5.95;;;22.50;99.90;;;;;;10346387;28;20229;-84
2023/06/30 11:13:47;;;;;;;37.53;13.48;;;22.70;99.90;;;;;;10311269;28;20297;-81
2023/06/30 11:19:23;;;;;;;24.83;10.40;;;23.00;99.90;;;;;;10333713;28;20512;-80
2023/06/30 11:24:45;;;;;;;34.55;11.73;;;23.20;99.90;;;;;;10329672;28;20224;-79
2023/06/30 11:30:07;;;;;;;23.13;9.73;;;;;;;;;;10347147;28;20283;-78
2023/06/30 11:35:29;;;;;;;9.65;5.72;;;;;;;;;;10348415;28;20241;-79
2023/06/30 11:40:51;;;;;;;9.65;4.70;;;;;;;;;;10344776;28;20216;-77
2023/06/30 11:46:13;;;;;;;12.30;5.68;;;;;;;;;;10347316;28;20245;-77
2023/06/30 11:51:36;;;;;;;13.27;5.60;;;23.10;99.90;;;;;;10349327;28;20195;-81
2023/06/30 11:56:58;;;;;;;5.40;4.13;;;;;;;;;;10343484;28;20198;-81
2023/06/30 12:02:20;;;;;;;7.05;5.70;;;23.80;99.90;;;;;;10348752;28;20249;-79
2023/06/30 12:07:43;;;;;;;7.05;4.82;;;23.90;99.90;;;;;;10348204;28;20269;-82
2023/06/30 12:13:07;;;;;;;8.30;4.78;;;24.30;95.90;;;;;;10341316;28;20217;-81
2023/06/30 12:18:37;;;;;;;8.35;4.80;;;24.40;93.00;;;;;;10347977;28;20291;-80
2023/06/30 12:23:58;;;;;;;9.20;5.07;;;24.30;99.90;;;;;;10345417;28;20257;-80
2023/06/30 12:29:20;;;;;;;10.60;5.47;;;23.90;99.90;;;;;;10338344;28;20421;-82
2023/06/30 12:34:45;;;;;;;6.80;4.30;;;23.70;99.90;;;;;;10332715;28;20297;-79
2023/06/30 12:40:08;;;;;;;9.23;5.18;;;23.60;99.90;;;;;;10332089;28;20214;-82
2023/06/30 12:45:29;;;;;;;19.98;6.50;;;23.30;1.00;;;;;;10320813;28;20237;-79
2023/06/30 12:50:52;;;;;;;9.70;5.82;;;;;;;;;;10356828;28;20229;-82
2023/06/30 12:56:14;;;;;;;12.57;6.25;;;22.10;99.90;;;;;;10368959;28;20252;-84
2023/06/30 13:01:35;;;;;;;7.93;5.47;;;21.50;99.90;;;;;;10335094;28;20213;-80
2023/06/30 13:06:58;;;;;;;5.22;4.63;;;21.30;99.90;;;;;;10321296;28;20249;-78
2023/06/30 13:12:24;;;;;;;6.20;5.30;;;21.20;99.90;;;;;;10353225;28;20198;-81
2023/06/30 13:17:46;;;;;;;7.50;4.57;;;21.20;99.90;;;;;;10348909;28;20272;-79
2023/06/30 13:23:07;;;;;;;6.88;5.03;;;21.50;99.90;;;;;;10352860;28;20194;-79
2023/06/30 13:28:32;;;;;;;6.35;5.18;;;21.80;99.90;;;;;;10341612;28;20252;-79
2023/06/30 13:33:53;;;;;;;4.88;4.38;;;21.80;99.90;;;;;;10347458;28;20193;-82
2023/06/30 13:39:16;;;;;;;8.98;5.10;;;21.90;99.90;;;;;;10354141;28;20568;-79
2023/06/30 13:44:37;;;;;;;7.30;4.72;;;21.80;99.90;;;;;;10348098;28;20203;-81
2023/06/30 13:49:58;;;;;;;5.28;4.78;;;21.80;99.90;;;;;;10365598;28;20233;-80
2023/06/30 13:55:20;;;;;;;8.65;5.95;;;21.70;99.90;;;;;;10338170;28;20231;-79
2023/06/30 14:00:41;;;;;;;5.55;5.03;;;21.70;99.90;;;;;;10341518;28;20228;-82
2023/06/30 14:06:03;;;;;;;7.43;5.72;;;21.60;99.90;;;;;;10348697;28;20395;-80
2023/06/30 14:11:25;;;;;;;8.95;6.78;;;21.80;99.90;;;;;;10336728;28;20284;-88
2023/06/30 14:16:47;;;;;;;6.68;5.93;;;22.00;99.90;;;;;;10345541;28;20508;-81
2023/06/30 14:22:08;;;;;;;7.90;5.13;;;22.10;99.90;;;;;;10334365;28;20209;-79
2023/06/30 14:27:30;;;;;;;8.55;6.35;;;22.10;99.90;;;;;;10344881;28;20243;-79
2023/06/30 14:32:51;;;;;;;17.13;11.25;;;21.80;99.90;;;;;;10343874;28;20202;-83
2023/06/30 14:38:12;;;;;;;13.48;10.57;;;21.50;99.90;;;;;;10348859;28;20220;-79
2023/06/30 14:43:33;;;;;;;12.43;9.68;;;21.20;99.90;;;;;;10325617;28;20205;-83
2023/06/30 14:48:55;;;;;;;11.52;9.75;;;21.20;99.90;;;;;;10335813;28;20228;-79
2023/06/30 14:54:16;;;;;;;13.90;10.02;;;21.00;99.90;;;;;;10323241;28;20572;-79
2023/06/30 14:59:38;;;;;;;18.08;13.52;;;20.90;99.90;;;;;;10321344;28;20228;-80
2023/06/30 15:04:59;;;;;;;22.20;12.95;;;20.80;99.90;;;;;;10335721;28;20225;-80
2023/06/30 15:10:20;;;;;;;13.75;11.48;;;20.60;99.90;;;;;;10340767;28;20250;-83
2023/06/30 15:15:41;;;;;;;14.45;12.02;;;20.50;99.90;;;;;;10331322;28;20201;-85
2023/06/30 15:21:03;;;;;;;16.58;12.35;;;20.50;99.90;;;;;;10330033;28;20202;-81
2023/06/30 15:26:24;;;;;;;16.70;13.25;;;20.40;99.90;;;;;;10349755;28;20247;-80
2023/06/30 15:31:45;;;;;;;16.35;11.95;;;20.30;99.90;;;;;;10342130;28;20225;-80
2023/06/30 15:37:07;;;;;;;14.10;10.98;;;20.20;99.90;;;;;;10338197;28;20186;-80
2023/06/30 15:42:31;;;;;;;13.88;9.95;;;;;;;;;;10339736;28;20199;-80
2023/06/30 15:47:54;;;;;;;12.75;8.48;;;19.90;99.90;;;;;;10344450;28;20276;-80
2023/06/30 15:53:15;;;;;;;13.38;8.90;;;19.80;99.90;;;;;;10352317;28;20197;-79
2023/06/30 15:58:37;;;;;;;11.77;7.68;;;19.70;99.90;;;;;;10337669;28;20447;-80
2023/06/30 16:03:58;;;;;;;9.30;6.93;;;19.80;99.90;;;;;;10328872;28;20238;-79
2023/06/30 16:09:19;;;;;;;7.70;6.10;;;19.70;99.90;;;;;;10330840;28;20230;-80
2023/06/30 16:14:40;;;;;;;6.88;5.30;;;19.70;99.90;;;;;;10328544;28;20280;-80
2023/06/30 16:20:02;;;;;;;6.88;5.20;;;19.60;99.90;;;;;;10374464;28;20217;-79
2023/06/30 16:25:23;;;;;;;6.20;4.97;;;19.50;99.90;;;;;;10357189;28;20272;-79
2023/06/30 16:30:45;;;;;;;5.72;3.75;;;;;;;;;;10344166;28;20520;-79
2023/06/30 16:36:07;;;;;;;6.78;4.10;;;19.20;99.90;;;;;;10359634;28;20241;-79
2023/06/30 16:41:28;;;;;;;5.35;3.40;;;19.30;99.90;;;;;;10342346;28;20194;-79
2023/06/30 16:46:50;;;;;;;7.80;5.25;;;19.30;99.90;;;;;;10330103;28;20250;-79
2023/06/30 16:52:11;;;;;;;6.07;4.30;;;19.30;99.90;;;;;;10305026;28;20226;-79
2023/06/30 16:57:32;;;;;;;6.20;4.05;;;19.20;99.90;;;;;;10319029;28;20194;-79
2023/06/30 17:02:55;;;;;;;8.40;4.40;;;19.20;99.90;;;;;;10328517;28;20317;-80
2023/06/30 17:08:16;;;;;;;5.78;3.58;;;19.20;99.90;;;;;;10323369;28;20225;-79
2023/06/30 17:13:37;;;;;;;6.78;3.92;;;19.20;99.90;;;;;;10344535;28;20221;-79
2023/06/30 17:18:59;;;;;;;7.05;4.75;;;19.10;99.90;;;;;;10353153;28;20209;-79
2023/06/30 17:24:20;;;;;;;7.95;5.05;;;;;;;;;;10357607;28;20244;-79
2023/06/30 17:29:41;;;;;;;11.98;3.90;;;;;;;;;;10334620;28;20277;-79
2023/06/30 17:35:03;;;;;;;5.28;2.80;;;;;;;;;;10343890;28;20574;-79
2023/06/30 17:40:25;;;;;;;3.53;3.03;;;;;;;;;;10343715;28;20206;-79
2023/06/30 17:45:46;;;;;;;4.57;2.95;;;;;;;;;;10338761;28;20212;-80
2023/06/30 17:51:09;;;;;;;3.97;3.00;;;;;;;;;;10370730;28;20226;-78
2023/06/30 17:56:30;;;;;;;3.53;2.17;;;;;;;;;;10370837;28;20220;-80
2023/06/30 18:01:52;;;;;;;4.32;2.65;;;;;;;;;;10351209;28;20232;-79
2023/06/30 18:07:14;;;;;;;3.97;2.10;;;;;;;;;;10356496;28;20263;-79
2023/06/30 18:12:35;;;;;;;6.05;2.05;;;;;;;;;;10356332;28;21055;-79
2023/06/30 18:17:56;;;;;;;2.42;1.98;;;18.10;99.90;;;;;;10351052;28;20445;-79
2023/06/30 18:23:18;;;;;;;3.22;1.63;;;18.20;99.90;;;;;;10356016;28;20372;-79
2023/06/30 18:28:39;;;;;;;3.03;2.03;;;18.20;99.90;;;;;;10336670;28;20521;-79
2023/06/30 18:34:01;;;;;;;3.67;2.17;;;;;;;;;;10341187;28;20197;-79
2023/06/30 18:39:23;;;;;;;3.92;2.13;;;;;;;;;;10355247;28;20469;-79
2023/06/30 18:44:44;;;;;;;3.17;2.08;;;;;;;;;;10347797;28;20197;-79
2023/06/30 18:50:07;;;;;;;7.15;3.00;;;;;;;;;;10352877;28;20222;-78
2023/06/30 18:55:28;;;;;;;5.75;2.53;;;;;;;;;;10336961;28;20201;-78
2023/06/30 19:00:50;;;;;;;5.40;2.40;;;;;;;;;;10354249;28;20205;-78
2023/06/30 19:06:12;;;;;;;3.30;1.58;;;;;;;;;;10366030;28;20229;-78
2023/06/30 19:11:33;;;;;;;3.67;1.95;;;18.00;99.90;;;;;;10340057;28;20229;-79
2023/06/30 19:16:54;;;;;;;3.58;1.83;;;;;;;;;;10339978;28;20204;-79
2023/06/30 19:22:15;;;;;;;2.92;1.92;;;;;;;;;;10350101;28;20448;-79
2023/06/30 19:27:37;;;;;;;2.63;1.77;;;;;;;;;;10353035;28;20336;-79
2023/06/30 19:32:59;;;;;;;2.17;1.50;;;17.70;99.90;;;;;;10339654;28;20213;-79
2023/06/30 19:38:21;;;;;;;3.25;1.80;;;;;;;;;;10362264;28;20245;-80
2023/06/30 19:43:42;;;;;;;2.60;2.10;;;;;;;;;;10354413;28;20500;-80
2023/06/30 19:49:05;;;;;;;2.85;1.85;;;17.50;99.90;;;;;;10357579;28;20229;-78
2023/06/30 19:54:26;;;;;;;3.75;1.90;;;;;;;;;;10337133;28;20210;-79
2023/06/30 19:59:48;;;;;;;3.88;1.90;;;;;;;;;;10320843;28;20228;-80
2023/06/30 20:05:09;;;;;;;4.72;1.90;;;17.00;99.90;;;;;;10331461;28;20240;-80
2023/06/30 20:10:30;;;;;;;3.47;1.42;;;17.10;99.90;;;;;;10337213;28;20240;-80
2023/06/30 20:15:52;;;;;;;1.60;0.85;;;;;;;;;;10321491;28;20212;-79
2023/06/30 20:21:16;;;;;;;2.80;1.02;;;16.50;99.90;;;;;;10337386;28;20390;-80
2023/06/30 20:26:37;;;;;;;3.10;1.40;;;16.50;99.90;;;;;;10346032;28;20230;-79
2023/06/30 20:31:59;;;;;;;2.53;1.23;;;16.40;99.90;;;;;;10359733;28;20527;-80
2023/06/30 20:37:20;;;;;;;1.95;1.23;;;16.30;99.90;;;;;;10356102;28;20263;-79
2023/06/30 20:42:41;;;;;;;4.45;1.20;;;16.30;99.90;;;;;;10359443;28;20195;-79
2023/06/30 20:48:02;;;;;;;2.58;1.48;;;16.30;99.90;;;;;;10359209;28;20252;-79
2023/06/30 20:53:23;;;;;;;4.47;2.13;;;16.40;99.90;;;;;;10338059;28;20257;-79
2023/06/30 20:58:45;;;;;;;4.20;2.00;;;16.30;99.90;;;;;;10330463;28;20204;-79
2023/06/30 21:04:06;;;;;;;6.65;2.03;;;16.30;99.90;;;;;;10326582;28;20235;-79
2023/06/30 21:09:27;;;;;;;3.50;1.40;;;16.30;99.90;;;;;;10353822;28;20224;-80
2023/06/30 21:14:48;;;;;;;1.17;0.90;;;16.30;99.90;;;;;;10357988;28;20200;-79
2023/06/30 21:20:10;;;;;;;1.90;1.13;;;16.30;99.90;;;;;;10353288;28;20201;-79
2023/06/30 21:25:31;;;;;;;3.70;1.77;;;16.30;99.90;;;;;;10352359;28;20251;-79
2023/06/30 21:30:56;;;;;;;6.57;1.60;;;16.30;99.90;;;;;;10352023;28;20242;-79
2023/06/30 21:36:17;;;;;;;3.17;1.67;;;16.20;99.90;;;;;;10357505;28;20201;-79
2023/06/30 21:41:38;;;;;;;2.70;1.25;;;16.10;99.90;;;;;;10359843;28;20418;-79
2023/06/30 21:47:01;;;;;;;1.48;1.30;;;;;;;;;;10357422;28;20206;-79
2023/06/30 21:52:22;;;;;;;2.38;1.30;;;15.80;99.90;;;;;;10356935;28;20212;-79
2023/06/30 21:57:43;;;;;;;2.22;1.50;;;15.90;99.90;;;;;;10354470;28;20510;-79
2023/06/30 22:03:05;;;;;;;3.42;1.55;;;16.00;99.90;;;;;;10316761;28;20230;-80
2023/06/30 22:08:28;;;;;;;2.78;1.42;;;16.00;99.90;;;;;;10325020;28;20304;-80
2023/06/30 22:13:49;;;;;;;4.30;1.98;;;16.00;99.90;;;;;;10353136;28;20236;-79
2023/06/30 22:19:11;;;;;;;4.45;1.90;;;15.90;99.90;;;;;;10342558;28;20251;-79
2023/06/30 22:24:32;;;;;;;2.22;1.67;;;;;;;;;;10356659;28;20219;-80
2023/06/30 22:29:55;;;;;;;3.20;1.77;;;15.70;99.90;;;;;;10337435;28;20238;-79
2023/06/30 22:35:17;;;;;;;3.97;1.98;;;;;;;;;;10341832;28;20498;-79
2023/06/30 22:40:39;;;;;;;2.78;1.60;;;15.40;99.90;;;;;;10369169;28;20203;-79
2023/06/30 22:46:00;;;;;;;4.90;2.20;;;15.60;99.90;;;;;;10340002;28;20209;-79
2023/06/30 22:51:22;;;;;;;1.42;1.30;;;;;;;;;;10356010;28;20585;-79
2023/06/30 22:56:43;;;;;;;5.35;1.95;;;15.50;99.90;;;;;;10368804;28;20213;-80
2023/06/30 23:02:05;;;;;;;3.08;1.70;;;15.50;99.90;;;;;;10353266;28;20201;-80
2023/06/30 23:07:27;;;;;;;2.97;1.75;;;;;;;;;;10326858;28;20494;-80
2023/06/30 23:12:49;;;;;;;5.10;1.50;;;;;;;;;;10327952;28;20431;-79
2023/06/30 23:18:13;;;;;;;3.55;1.55;;;;;;;;;;10349563;28;20434;-79
2023/06/30 23:23:40;;;;;;;3.17;1.60;;;;;;;;;;10340056;28;20235;-79
2023/06/30 23:29:08;;;;;;;2.22;1.50;;;;;;;;;;10331383;28;20386;-79
2023/06/30 23:34:31;;;;;;;2.25;1.50;;;;;;;;;;10367897;28;20244;-80
2023/06/30 23:39:54;;;;;;;5.30;1.80;;;;;;;;;;10353644;28;20219;-79
2023/06/30 23:45:15;;;;;;;1.77;1.30;;;15.50;99.90;;;;;;10348911;28;20441;-80
2023/06/30 23:50:37;;;;;;;5.45;1.70;;;15.70;99.90;;;;;;10353300;28;20236;-79
2023/06/30 23:55:58;;;;;;;5.72;2.03;;;15.70;99.90;;;;;;10340306;28;20199;-79
